sensor_id;sensor_type;location;lat;lon;timestamp;pressure;altitude;pressure_sealevel;temperature;humidity
12215;BME280;6170;42.206;24.142;2023-05-23T00:01:12;98564.25;;;14.86;86.62
12215;BME280;6170;42.206;24.142;2023-05-23T00:03:41;98587.94;;;14.83;86.70
12215;BME280;6170;42.206;24.142;2023-05-23T00:06:10;98554.16;;;14.69;86.27
12215;BME280;6170;42.206;24.142;2023-05-23T00:08:36;98594.50;;;15.11;85.74
12215;BME280;6170;42.206;24.142;2023-05-23T00:11:03;98593.56;;;14.94;85.99
12215;BME280;6170;42.206;24.142;2023-05-23T00:13:30;98549.47;;;14.88;85.82
12215;BME280;6170;42.206;24.142;2023-05-23T00:15:59;98533.53;;;14.87;84.93
12215;BME280;6170;42.206;24.142;2023-05-23T00:18:26;98548.78;;;14.81;84.57
12215;BME280;6170;42.206;24.142;2023-05-23T00:20:55;98550.72;;;15.20;83.44
12215;BME280;6170;42.206;24.142;2023-05-23T00:23:25;98544.28;;;15.21;82.68
12215;BME280;6170;42.206;24.142;2023-05-23T00:25:54;98530.31;;;15.13;80.83
12215;BME280;6170;42.206;24.142;2023-05-23T00:28:21;98549.06;;;15.19;81.44
12215;BME280;6170;42.206;24.142;2023-05-23T00:30:48;98581.09;;;15.39;81.87
12215;BME280;6170;42.206;24.142;2023-05-23T00:33:15;98540.75;;;15.21;81.52
12215;BME280;6170;42.206;24.142;2023-05-23T00:35:42;98541.75;;;15.32;81.32
12215;BME280;6170;42.206;24.142;2023-05-23T00:38:09;98550.41;;;15.45;80.68
12215;BME280;6170;42.206;24.142;2023-05-23T00:40:38;98546.34;;;15.43;80.96
12215;BME280;6170;42.206;24.142;2023-05-23T00:43:05;98551.78;;;15.19;80.90
12215;BME280;6170;42.206;24.142;2023-05-23T00:45:32;98559.41;;;15.11;80.84
12215;BME280;6170;42.206;24.142;2023-05-23T00:48:00;98560.84;;;15.02;81.04
12215;BME280;6170;42.206;24.142;2023-05-23T00:50:28;98561.69;;;14.91;81.84
12215;BME280;6170;42.206;24.142;2023-05-23T00:52:56;98558.72;;;14.92;81.25
12215;BME280;6170;42.206;24.142;2023-05-23T00:55:24;98548.19;;;14.91;81.46
12215;BME280;6170;42.206;24.142;2023-05-23T00:57:53;98594.38;;;15.29;80.88
12215;BME280;6170;42.206;24.142;2023-05-23T01:00:22;98548.28;;;15.07;80.75
12215;BME280;6170;42.206;24.142;2023-05-23T01:02:50;98553.94;;;14.94;80.75
12215;BME280;6170;42.206;24.142;2023-05-23T01:05:18;98546.78;;;15.00;80.64
12215;BME280;6170;42.206;24.142;2023-05-23T01:07:47;98545.81;;;15.06;79.86
12215;BME280;6170;42.206;24.142;2023-05-23T01:10:16;98546.06;;;14.93;80.26
12215;BME280;6170;42.206;24.142;2023-05-23T01:12:54;98544.41;;;14.92;80.50
12215;BME280;6170;42.206;24.142;2023-05-23T01:15:24;98591.06;;;15.27;80.51
12215;BME280;6170;42.206;24.142;2023-05-23T01:17:59;98545.84;;;14.94;79.88
12215;BME280;6170;42.206;24.142;2023-05-23T01:20:30;98549.47;;;15.00;80.65
12215;BME280;6170;42.206;24.142;2023-05-23T01:23:06;98534.69;;;14.91;79.42
12215;BME280;6170;42.206;24.142;2023-05-23T01:25:56;98591.06;;;15.27;79.58
12215;BME280;6170;42.206;24.142;2023-05-23T01:28:31;98515.09;;;14.83;79.85
12215;BME280;6170;42.206;24.142;2023-05-23T01:31:02;98580.28;;;15.15;79.74
12215;BME280;6170;42.206;24.142;2023-05-23T01:33:31;98530.94;;;14.80;79.82
12215;BME280;6170;42.206;24.142;2023-05-23T01:36:00;98526.03;;;14.77;79.74
12215;BME280;6170;42.206;24.142;2023-05-23T01:38:28;98527.31;;;14.74;79.85
12215;BME280;6170;42.206;24.142;2023-05-23T01:40:56;98573.03;;;14.93;80.19
12215;BME280;6170;42.206;24.142;2023-05-23T01:43:23;98504.56;;;14.47;79.16
12215;BME280;6170;42.206;24.142;2023-05-23T01:45:52;98518.75;;;14.54;79.86
12215;BME280;6170;42.206;24.142;2023-05-23T01:48:23;98583.25;;;14.91;79.91
12215;BME280;6170;42.206;24.142;2023-05-23T01:50:51;98520.28;;;14.50;80.57
12215;BME280;6170;42.206;24.142;2023-05-23T01:53:20;98525.09;;;14.60;80.56
12215;BME280;6170;42.206;24.142;2023-05-23T01:55:48;98562.13;;;14.76;81.01
12215;BME280;6170;42.206;24.142;2023-05-23T01:58:15;98510.63;;;14.31;81.92
12215;BME280;6170;42.206;24.142;2023-05-23T02:00:42;98521.38;;;14.31;81.91
12215;BME280;6170;42.206;24.142;2023-05-23T02:03:11;98558.72;;;14.46;82.06
12215;BME280;6170;42.206;24.142;2023-05-23T02:05:38;98560.59;;;14.57;81.54
12215;BME280;6170;42.206;24.142;2023-05-23T02:08:04;98519.66;;;14.25;82.02
12215;BME280;6170;42.206;24.142;2023-05-23T02:10:31;98520.34;;;14.20;82.25
12215;BME280;6170;42.206;24.142;2023-05-23T02:12:58;98504.63;;;14.17;82.48
12215;BME280;6170;42.206;24.142;2023-05-23T02:15:25;98503.91;;;14.22;82.11
12215;BME280;6170;42.206;24.142;2023-05-23T02:17:52;98487.41;;;14.07;81.59
12215;BME280;6170;42.206;24.142;2023-05-23T02:20:21;98518.56;;;14.26;82.03
12215;BME280;6170;42.206;24.142;2023-05-23T02:22:47;98561.88;;;14.54;81.88
12215;BME280;6170;42.206;24.142;2023-05-23T02:25:14;98557.31;;;14.55;81.81
12215;BME280;6170;42.206;24.142;2023-05-23T02:27:41;98558.38;;;14.54;81.69
12215;BME280;6170;42.206;24.142;2023-05-23T02:30:09;98499.22;;;14.17;81.99
12215;BME280;6170;42.206;24.142;2023-05-23T02:32:36;98495.84;;;14.22;81.75
12215;BME280;6170;42.206;24.142;2023-05-23T02:35:03;98498.31;;;14.23;81.78
12215;BME280;6170;42.206;24.142;2023-05-23T02:37:32;98490.31;;;14.17;80.92
12215;BME280;6170;42.206;24.142;2023-05-23T02:39:59;98551.81;;;14.73;80.35
12215;BME280;6170;42.206;24.142;2023-05-23T02:42:26;98484.34;;;14.26;80.56
12215;BME280;6170;42.206;24.142;2023-05-23T02:44:53;98503.75;;;14.47;80.08
12215;BME280;6170;42.206;24.142;2023-05-23T02:47:20;98492.34;;;14.33;80.58
12215;BME280;6170;42.206;24.142;2023-05-23T02:49:46;98453.41;;;14.17;80.35
12215;BME280;6170;42.206;24.142;2023-05-23T02:52:13;98505.75;;;14.51;80.26
12215;BME280;6170;42.206;24.142;2023-05-23T02:54:42;98492.69;;;14.25;80.44
12215;BME280;6170;42.206;24.142;2023-05-23T02:57:09;98504.91;;;14.39;80.16
12215;BME280;6170;42.206;24.142;2023-05-23T02:59:36;98510.25;;;14.27;80.56
12215;BME280;6170;42.206;24.142;2023-05-23T03:02:03;98491.63;;;14.14;80.35
12215;BME280;6170;42.206;24.142;2023-05-23T03:04:30;98551.09;;;14.54;80.32
12215;BME280;6170;42.206;24.142;2023-05-23T03:06:58;98566.69;;;14.52;80.56
12215;BME280;6170;42.206;24.142;2023-05-23T03:09:24;98517.50;;;14.15;80.78
12215;BME280;6170;42.206;24.142;2023-05-23T03:11:53;98563.28;;;14.57;80.53
12215;BME280;6170;42.206;24.142;2023-05-23T03:14:20;98510.03;;;14.29;80.29
12215;BME280;6170;42.206;24.142;2023-05-23T03:16:46;98559.66;;;14.51;80.79
12215;BME280;6170;42.206;24.142;2023-05-23T03:19:13;98510.28;;;14.39;80.26
12215;BME280;6170;42.206;24.142;2023-05-23T03:21:40;98524.03;;;14.49;80.18
12215;BME280;6170;42.206;24.142;2023-05-23T03:24:08;98568.81;;;14.50;81.22
12215;BME280;6170;42.206;24.142;2023-05-23T03:26:36;98519.03;;;14.34;80.59
12215;BME280;6170;42.206;24.142;2023-05-23T03:29:04;98558.84;;;14.74;80.42
12215;BME280;6170;42.206;24.142;2023-05-23T03:31:31;98521.09;;;14.62;79.65
12215;BME280;6170;42.206;24.142;2023-05-23T03:33:58;98564.00;;;14.87;79.09
12215;BME280;6170;42.206;24.142;2023-05-23T03:36:25;98514.41;;;14.53;79.06
12215;BME280;6170;42.206;24.142;2023-05-23T03:38:52;98512.06;;;14.80;78.46
12215;BME280;6170;42.206;24.142;2023-05-23T03:41:19;98518.06;;;14.82;78.07
12215;BME280;6170;42.206;24.142;2023-05-23T03:43:46;98524.72;;;14.91;78.59
12215;BME280;6170;42.206;24.142;2023-05-23T03:46:15;98511.00;;;14.93;77.79
12215;BME280;6170;42.206;24.142;2023-05-23T03:48:42;98520.09;;;15.26;77.28
12215;BME280;6170;42.206;24.142;2023-05-23T03:51:09;98516.34;;;15.16;76.72
12215;BME280;6170;42.206;24.142;2023-05-23T03:53:38;98519.72;;;15.23;76.71
12215;BME280;6170;42.206;24.142;2023-05-23T03:56:05;98525.13;;;15.23;76.65
12215;BME280;6170;42.206;24.142;2023-05-23T03:58:32;98521.94;;;15.38;76.09
12215;BME280;6170;42.206;24.142;2023-05-23T04:00:58;98529.53;;;15.41;76.50
12215;BME280;6170;42.206;24.142;2023-05-23T04:03:28;98527.19;;;15.56;76.06
12215;BME280;6170;42.206;24.142;2023-05-23T04:05:57;98519.19;;;15.61;76.17
12215;BME280;6170;42.206;24.142;2023-05-23T04:08:25;98512.00;;;15.66;76.10
12215;BME280;6170;42.206;24.142;2023-05-23T04:10:52;98520.47;;;15.87;75.45
12215;BME280;6170;42.206;24.142;2023-05-23T04:13:19;98550.84;;;16.39;74.93
12215;BME280;6170;42.206;24.142;2023-05-23T04:15:47;98516.41;;;16.01;75.39
12215;BME280;6170;42.206;24.142;2023-05-23T04:18:14;98522.84;;;16.28;74.42
12215;BME280;6170;42.206;24.142;2023-05-23T04:20:43;98509.94;;;16.69;73.52
12215;BME280;6170;42.206;24.142;2023-05-23T04:23:10;98522.47;;;16.91;73.00
12215;BME280;6170;42.206;24.142;2023-05-23T04:25:37;98513.81;;;17.11;72.15
12215;BME280;6170;42.206;24.142;2023-05-23T04:28:04;98525.00;;;16.98;71.95
12215;BME280;6170;42.206;24.142;2023-05-23T04:30:31;98552.31;;;17.78;70.44
12215;BME280;6170;42.206;24.142;2023-05-23T04:32:58;98521.88;;;17.71;69.58
12215;BME280;6170;42.206;24.142;2023-05-23T04:35:25;98525.16;;;17.73;69.94
12215;BME280;6170;42.206;24.142;2023-05-23T04:37:54;98553.63;;;18.29;69.26
12215;BME280;6170;42.206;24.142;2023-05-23T04:40:22;98555.88;;;18.64;70.00
12215;BME280;6170;42.206;24.142;2023-05-23T04:42:49;98513.69;;;18.20;68.36
12215;BME280;6170;42.206;24.142;2023-05-23T04:45:16;98532.03;;;18.39;68.88
12215;BME280;6170;42.206;24.142;2023-05-23T04:47:44;98530.28;;;18.55;68.53
12215;BME280;6170;42.206;24.142;2023-05-23T04:50:11;98528.09;;;18.89;67.37
12215;BME280;6170;42.206;24.142;2023-05-23T04:52:39;98526.25;;;18.58;67.93
12215;BME280;6170;42.206;24.142;2023-05-23T04:55:08;98519.88;;;19.31;66.68
12215;BME280;6170;42.206;24.142;2023-05-23T04:57:35;98574.09;;;19.53;65.32
12215;BME280;6170;42.206;24.142;2023-05-23T05:00:02;98558.47;;;19.28;66.78
12215;BME280;6170;42.206;24.142;2023-05-23T05:02:33;98534.53;;;19.82;65.51
12215;BME280;6170;42.206;24.142;2023-05-23T05:05:01;98535.34;;;19.98;66.13
12215;BME280;6170;42.206;24.142;2023-05-23T05:07:28;98567.53;;;20.36;64.66
12215;BME280;6170;42.206;24.142;2023-05-23T05:09:55;98520.44;;;20.15;63.75
12215;BME280;6170;42.206;24.142;2023-05-23T05:12:23;98544.28;;;19.83;63.76
12215;BME280;6170;42.206;24.142;2023-05-23T05:14:50;98545.72;;;20.11;64.21
12215;BME280;6170;42.206;24.142;2023-05-23T05:17:17;98535.69;;;20.22;63.46
12215;BME280;6170;42.206;24.142;2023-05-23T05:19:44;98538.66;;;20.20;64.78
12215;BME280;6170;42.206;24.142;2023-05-23T05:22:11;98537.84;;;20.90;61.76
12215;BME280;6170;42.206;24.142;2023-05-23T05:24:39;98532.44;;;20.65;62.63
12215;BME280;6170;42.206;24.142;2023-05-23T05:27:06;98533.00;;;20.57;63.01
12215;BME280;6170;42.206;24.142;2023-05-23T05:29:35;98541.69;;;20.79;61.89
12215;BME280;6170;42.206;24.142;2023-05-23T05:32:02;98579.19;;;21.43;60.41
12215;BME280;6170;42.206;24.142;2023-05-23T05:34:29;98538.41;;;20.97;60.98
12215;BME280;6170;42.206;24.142;2023-05-23T05:36:56;98549.50;;;21.41;59.49
12215;BME280;6170;42.206;24.142;2023-05-23T05:39:23;98555.63;;;21.77;58.85
12215;BME280;6170;42.206;24.142;2023-05-23T05:41:51;98545.41;;;22.03;59.44
12215;BME280;6170;42.206;24.142;2023-05-23T05:44:18;98543.22;;;22.00;59.39
12215;BME280;6170;42.206;24.142;2023-05-23T05:46:46;98596.22;;;22.38;57.97
12215;BME280;6170;42.206;24.142;2023-05-23T05:49:13;98544.25;;;22.09;58.55
12215;BME280;6170;42.206;24.142;2023-05-23T05:51:40;98559.31;;;23.08;58.28
12215;BME280;6170;42.206;24.142;2023-05-23T05:54:07;98554.25;;;23.20;57.49
12215;BME280;6170;42.206;24.142;2023-05-23T05:56:35;98577.41;;;23.81;56.01
12215;BME280;6170;42.206;24.142;2023-05-23T05:59:02;98555.09;;;23.68;55.93
12215;BME280;6170;42.206;24.142;2023-05-23T06:01:28;98579.72;;;24.11;56.01
12215;BME280;6170;42.206;24.142;2023-05-23T06:03:57;98586.41;;;24.42;56.35
12215;BME280;6170;42.206;24.142;2023-05-23T06:06:24;98549.72;;;24.25;56.24
12215;BME280;6170;42.206;24.142;2023-05-23T06:08:50;98521.84;;;23.80;56.60
12215;BME280;6170;42.206;24.142;2023-05-23T06:11:18;98550.34;;;24.35;55.69
12215;BME280;6170;42.206;24.142;2023-05-23T06:13:44;98580.53;;;24.11;55.82
12215;BME280;6170;42.206;24.142;2023-05-23T06:16:11;98573.00;;;24.22;55.98
12215;BME280;6170;42.206;24.142;2023-05-23T06:18:39;98538.44;;;24.07;56.52
12215;BME280;6170;42.206;24.142;2023-05-23T06:21:08;98550.63;;;24.52;55.81
12215;BME280;6170;42.206;24.142;2023-05-23T06:23:35;98532.16;;;25.09;54.12
12215;BME280;6170;42.206;24.142;2023-05-23T06:26:02;98534.00;;;25.55;53.87
12215;BME280;6170;42.206;24.142;2023-05-23T06:28:32;98535.72;;;25.50;52.34
12215;BME280;6170;42.206;24.142;2023-05-23T06:30:59;98526.66;;;25.09;54.02
12215;BME280;6170;42.206;24.142;2023-05-23T06:33:27;98572.75;;;25.67;54.05
12215;BME280;6170;42.206;24.142;2023-05-23T06:35:55;98521.47;;;24.75;55.28
12215;BME280;6170;42.206;24.142;2023-05-23T06:38:26;98518.13;;;24.65;54.96
12215;BME280;6170;42.206;24.142;2023-05-23T06:40:54;98534.06;;;25.49;53.67
12215;BME280;6170;42.206;24.142;2023-05-23T06:43:21;98521.84;;;25.01;54.26
12215;BME280;6170;42.206;24.142;2023-05-23T06:45:47;98516.09;;;25.02;53.29
12215;BME280;6170;42.206;24.142;2023-05-23T06:48:14;98523.22;;;24.85;56.55
12215;BME280;6170;42.206;24.142;2023-05-23T06:50:41;98533.69;;;25.42;53.99
12215;BME280;6170;42.206;24.142;2023-05-23T06:53:08;98520.44;;;25.85;52.91
12215;BME280;6170;42.206;24.142;2023-05-23T06:55:36;98564.00;;;26.28;51.59
12215;BME280;6170;42.206;24.142;2023-05-23T06:58:03;98525.22;;;26.96;52.43
12215;BME280;6170;42.206;24.142;2023-05-23T07:00:30;98556.31;;;27.36;50.97
12215;BME280;6170;42.206;24.142;2023-05-23T07:02:57;98516.50;;;26.50;53.01
12215;BME280;6170;42.206;24.142;2023-05-23T07:05:26;98547.88;;;27.24;50.72
12215;BME280;6170;42.206;24.142;2023-05-23T07:07:53;98511.78;;;27.25;50.00
12215;BME280;6170;42.206;24.142;2023-05-23T07:10:20;98551.38;;;27.95;50.66
12215;BME280;6170;42.206;24.142;2023-05-23T07:12:48;98552.78;;;27.44;48.24
12215;BME280;6170;42.206;24.142;2023-05-23T07:15:16;98540.16;;;27.83;50.02
12215;BME280;6170;42.206;24.142;2023-05-23T07:17:43;98512.91;;;27.64;50.38
12215;BME280;6170;42.206;24.142;2023-05-23T07:20:10;98507.94;;;27.83;48.83
12215;BME280;6170;42.206;24.142;2023-05-23T07:22:37;98507.84;;;28.14;46.96
12215;BME280;6170;42.206;24.142;2023-05-23T07:25:05;98538.56;;;27.90;48.52
12215;BME280;6170;42.206;24.142;2023-05-23T07:27:32;98503.41;;;27.31;48.84
12215;BME280;6170;42.206;24.142;2023-05-23T07:30:01;98530.28;;;26.80;47.02
12215;BME280;6170;42.206;24.142;2023-05-23T07:32:28;98488.44;;;27.62;51.73
12215;BME280;6170;42.206;24.142;2023-05-23T07:34:55;98489.09;;;27.59;49.10
12215;BME280;6170;42.206;24.142;2023-05-23T07:37:22;98519.22;;;27.56;48.75
12215;BME280;6170;42.206;24.142;2023-05-23T07:39:49;98492.53;;;27.82;50.61
12215;BME280;6170;42.206;24.142;2023-05-23T07:42:16;98521.31;;;27.19;46.43
12215;BME280;6170;42.206;24.142;2023-05-23T07:44:43;98486.25;;;26.94;47.17
12215;BME280;6170;42.206;24.142;2023-05-23T07:47:11;98506.00;;;27.44;47.48
12215;BME280;6170;42.206;24.142;2023-05-23T07:49:38;98494.91;;;27.58;46.20
12215;BME280;6170;42.206;24.142;2023-05-23T07:52:05;98448.78;;;27.07;46.62
12215;BME280;6170;42.206;24.142;2023-05-23T07:54:32;98521.88;;;27.87;44.65
12215;BME280;6170;42.206;24.142;2023-05-23T07:56:59;98492.84;;;27.81;45.72
12215;BME280;6170;42.206;24.142;2023-05-23T07:59:26;98531.94;;;28.00;44.51
12215;BME280;6170;42.206;24.142;2023-05-23T08:01:54;98461.88;;;27.58;43.52
12215;BME280;6170;42.206;24.142;2023-05-23T08:04:22;98538.75;;;28.11;45.80
12215;BME280;6170;42.206;24.142;2023-05-23T08:06:49;98484.97;;;28.31;43.89
12215;BME280;6170;42.206;24.142;2023-05-23T08:09:16;98480.75;;;28.16;43.18
12215;BME280;6170;42.206;24.142;2023-05-23T08:11:43;98470.22;;;28.44;43.85
12215;BME280;6170;42.206;24.142;2023-05-23T08:14:10;98520.28;;;28.63;42.59
12215;BME280;6170;42.206;24.142;2023-05-23T08:16:37;98511.16;;;28.97;46.47
12215;BME280;6170;42.206;24.142;2023-05-23T08:19:04;98460.44;;;28.55;44.62
12215;BME280;6170;42.206;24.142;2023-05-23T08:21:33;98475.56;;;28.49;47.83
12215;BME280;6170;42.206;24.142;2023-05-23T08:24:00;98510.06;;;29.27;44.52
12215;BME280;6170;42.206;24.142;2023-05-23T08:26:27;98476.00;;;28.85;43.29
12215;BME280;6170;42.206;24.142;2023-05-23T08:28:59;98516.53;;;28.93;44.14
12215;BME280;6170;42.206;24.142;2023-05-23T08:31:26;98463.53;;;28.71;44.40
12215;BME280;6170;42.206;24.142;2023-05-23T08:33:54;98465.31;;;28.75;45.08
12215;BME280;6170;42.206;24.142;2023-05-23T08:36:21;98473.31;;;28.25;45.52
12215;BME280;6170;42.206;24.142;2023-05-23T08:38:49;98466.81;;;28.38;44.00
12215;BME280;6170;42.206;24.142;2023-05-23T08:41:18;98490.19;;;27.50;44.18
12215;BME280;6170;42.206;24.142;2023-05-23T08:43:46;98458.69;;;27.90;43.81
12215;BME280;6170;42.206;24.142;2023-05-23T08:46:14;98459.00;;;27.80;45.88
12215;BME280;6170;42.206;24.142;2023-05-23T08:48:41;98449.91;;;28.57;47.00
12215;BME280;6170;42.206;24.142;2023-05-23T08:51:09;98452.06;;;28.08;40.94
12215;BME280;6170;42.206;24.142;2023-05-23T08:53:37;98436.16;;;28.48;43.63
12215;BME280;6170;42.206;24.142;2023-05-23T08:56:09;98485.44;;;28.33;41.80
12215;BME280;6170;42.206;24.142;2023-05-23T08:58:36;98446.44;;;27.40;41.57
12215;BME280;6170;42.206;24.142;2023-05-23T09:01:05;98457.81;;;26.99;45.30
12215;BME280;6170;42.206;24.142;2023-05-23T09:03:32;98483.09;;;25.98;45.26
12215;BME280;6170;42.206;24.142;2023-05-23T09:06:02;98441.97;;;26.20;44.46
12215;BME280;6170;42.206;24.142;2023-05-23T09:08:29;98478.81;;;26.42;46.19
12215;BME280;6170;42.206;24.142;2023-05-23T09:10:56;98442.59;;;26.70;44.68
12215;BME280;6170;42.206;24.142;2023-05-23T09:13:24;98477.88;;;26.99;45.45
12215;BME280;6170;42.206;24.142;2023-05-23T09:15:57;98443.97;;;27.21;45.09
12215;BME280;6170;42.206;24.142;2023-05-23T09:18:27;98483.16;;;27.35;46.98
12215;BME280;6170;42.206;24.142;2023-05-23T09:20:58;98439.53;;;27.03;47.17
12215;BME280;6170;42.206;24.142;2023-05-23T09:23:28;98441.94;;;26.43;49.38
12215;BME280;6170;42.206;24.142;2023-05-23T09:25:55;98445.94;;;26.59;47.60
12215;BME280;6170;42.206;24.142;2023-05-23T09:28:24;98447.31;;;26.25;49.28
12215;BME280;6170;42.206;24.142;2023-05-23T09:30:57;98433.19;;;25.96;48.88
12215;BME280;6170;42.206;24.142;2023-05-23T09:33:28;98451.50;;;25.10;50.72
12215;BME280;6170;42.206;24.142;2023-05-23T09:35:55;98446.78;;;24.83;51.34
12215;BME280;6170;42.206;24.142;2023-05-23T09:38:23;98486.94;;;25.20;52.20
12215;BME280;6170;42.206;24.142;2023-05-23T09:40:53;98451.81;;;24.95;49.09
12215;BME280;6170;42.206;24.142;2023-05-23T09:43:23;98488.78;;;24.33;53.25
12215;BME280;6170;42.206;24.142;2023-05-23T09:45:52;98489.47;;;24.06;55.32
12215;BME280;6170;42.206;24.142;2023-05-23T09:48:27;98447.38;;;23.64;52.00
12215;BME280;6170;42.206;24.142;2023-05-23T09:50:54;98497.09;;;24.28;51.35
12215;BME280;6170;42.206;24.142;2023-05-23T09:53:21;98455.28;;;24.54;48.38
12215;BME280;6170;42.206;24.142;2023-05-23T09:55:50;98480.44;;;24.56;49.39
12215;BME280;6170;42.206;24.142;2023-05-23T09:58:18;98457.38;;;24.44;48.19
12215;BME280;6170;42.206;24.142;2023-05-23T10:00:48;98457.47;;;24.85;51.26
12215;BME280;6170;42.206;24.142;2023-05-23T10:03:21;98440.06;;;24.62;50.72
12215;BME280;6170;42.206;24.142;2023-05-23T10:05:54;98479.19;;;24.81;52.49
12215;BME280;6170;42.206;24.142;2023-05-23T10:08:24;98451.41;;;24.88;52.95
12215;BME280;6170;42.206;24.142;2023-05-23T10:13:58;98453.13;;;25.38;52.34
12215;BME280;6170;42.206;24.142;2023-05-23T10:16:32;98452.00;;;26.25;53.10
12215;BME280;6170;42.206;24.142;2023-05-23T10:19:02;98479.13;;;26.71;49.30
12215;BME280;6170;42.206;24.142;2023-05-23T10:21:34;98446.03;;;27.07;48.22
12215;BME280;6170;42.206;24.142;2023-05-23T10:24:04;98473.13;;;27.87;47.72
12215;BME280;6170;42.206;24.142;2023-05-23T10:26:32;98462.44;;;28.20;48.95
12215;BME280;6170;42.206;24.142;2023-05-23T10:28:59;98448.13;;;27.58;49.86
12215;BME280;6170;42.206;24.142;2023-05-23T10:31:28;98481.53;;;27.99;47.87
12215;BME280;6170;42.206;24.142;2023-05-23T10:34:00;98452.31;;;28.67;46.85
12215;BME280;6170;42.206;24.142;2023-05-23T10:36:34;98443.06;;;28.80;44.97
12215;BME280;6170;42.206;24.142;2023-05-23T10:39:07;98446.91;;;29.26;46.01
12215;BME280;6170;42.206;24.142;2023-05-23T10:41:42;98457.19;;;29.55;44.74
12215;BME280;6170;42.206;24.142;2023-05-23T10:44:14;98417.09;;;29.19;44.01
12215;BME280;6170;42.206;24.142;2023-05-23T10:46:51;98479.06;;;29.30;43.65
12215;BME280;6170;42.206;24.142;2023-05-23T10:49:19;98447.38;;;28.09;45.62
12215;BME280;6170;42.206;24.142;2023-05-23T10:51:48;98455.94;;;27.90;46.61
12215;BME280;6170;42.206;24.142;2023-05-23T10:54:17;98430.03;;;28.00;46.09
12215;BME280;6170;42.206;24.142;2023-05-23T10:56:45;98418.13;;;27.39;48.31
12215;BME280;6170;42.206;24.142;2023-05-23T10:59:20;98432.78;;;27.83;48.31
12215;BME280;6170;42.206;24.142;2023-05-23T11:01:50;98412.03;;;27.51;45.53
12215;BME280;6170;42.206;24.142;2023-05-23T11:04:24;98442.19;;;27.16;46.34
12215;BME280;6170;42.206;24.142;2023-05-23T11:06:53;98413.69;;;26.20;47.46
12215;BME280;6170;42.206;24.142;2023-05-23T11:09:20;98435.97;;;26.41;46.68
12215;BME280;6170;42.206;24.142;2023-05-23T11:12:00;98439.84;;;25.81;48.52
12215;BME280;6170;42.206;24.142;2023-05-23T11:14:32;98483.50;;;25.28;51.01
12215;BME280;6170;42.206;24.142;2023-05-23T11:17:13;98480.66;;;25.47;50.65
12215;BME280;6170;42.206;24.142;2023-05-23T11:19:54;98483.78;;;25.40;52.25
12215;BME280;6170;42.206;24.142;2023-05-23T11:22:26;98484.94;;;25.67;51.20
12215;BME280;6170;42.206;24.142;2023-05-23T11:24:55;98454.66;;;25.31;50.44
12215;BME280;6170;42.206;24.142;2023-05-23T11:27:26;98475.16;;;25.47;51.82
12215;BME280;6170;42.206;24.142;2023-05-23T11:29:58;98469.00;;;24.68;53.32
12215;BME280;6170;42.206;24.142;2023-05-23T11:32:28;98469.28;;;24.53;57.17
12215;BME280;6170;42.206;24.142;2023-05-23T11:35:01;98456.41;;;24.67;58.54
12215;BME280;6170;42.206;24.142;2023-05-23T11:37:29;98440.94;;;23.55;62.01
12215;BME280;6170;42.206;24.142;2023-05-23T11:39:56;98489.97;;;24.27;61.73
12215;BME280;6170;42.206;24.142;2023-05-23T11:42:23;98447.97;;;23.61;63.29
12215;BME280;6170;42.206;24.142;2023-05-23T11:44:50;98478.34;;;23.60;64.45
12215;BME280;6170;42.206;24.142;2023-05-23T11:47:18;98432.56;;;23.47;63.46
12215;BME280;6170;42.206;24.142;2023-05-23T11:49:47;98442.59;;;23.75;61.53
12215;BME280;6170;42.206;24.142;2023-05-23T11:52:14;98428.97;;;23.70;61.10
12215;BME280;6170;42.206;24.142;2023-05-23T11:54:41;98462.22;;;24.33;57.57
12215;BME280;6170;42.206;24.142;2023-05-23T11:57:08;98430.22;;;24.61;56.40
12215;BME280;6170;42.206;24.142;2023-05-23T11:59:36;98428.28;;;24.61;56.37
12215;BME280;6170;42.206;24.142;2023-05-23T12:02:05;98427.25;;;25.17;57.69
12215;BME280;6170;42.206;24.142;2023-05-23T12:04:33;98431.56;;;25.95;52.63
12215;BME280;6170;42.206;24.142;2023-05-23T12:07:03;98472.63;;;26.00;51.96
12215;BME280;6170;42.206;24.142;2023-05-23T12:09:30;98456.34;;;26.70;51.23
12215;BME280;6170;42.206;24.142;2023-05-23T12:11:58;98420.25;;;25.74;48.75
12215;BME280;6170;42.206;24.142;2023-05-23T12:14:27;98456.50;;;25.85;49.87
12215;BME280;6170;42.206;24.142;2023-05-23T12:16:54;98405.50;;;26.06;46.01
12215;BME280;6170;42.206;24.142;2023-05-23T12:19:22;98452.25;;;26.59;49.83
12215;BME280;6170;42.206;24.142;2023-05-23T12:21:49;98402.81;;;26.68;47.89
12215;BME280;6170;42.206;24.142;2023-05-23T12:24:18;98390.47;;;26.88;44.64
12215;BME280;6170;42.206;24.142;2023-05-23T12:26:50;98385.06;;;27.22;45.19
12215;BME280;6170;42.206;24.142;2023-05-23T12:29:20;98388.31;;;27.15;44.85
12215;BME280;6170;42.206;24.142;2023-05-23T12:31:48;98397.31;;;27.90;44.66
12215;BME280;6170;42.206;24.142;2023-05-23T12:34:16;98425.00;;;28.36;44.71
12215;BME280;6170;42.206;24.142;2023-05-23T12:36:43;98392.59;;;27.99;43.78
12215;BME280;6170;42.206;24.142;2023-05-23T12:39:14;98422.66;;;28.55;42.98
12215;BME280;6170;42.206;24.142;2023-05-23T12:41:44;98424.63;;;28.46;44.59
12215;BME280;6170;42.206;24.142;2023-05-23T12:44:14;98389.53;;;27.83;44.70
12215;BME280;6170;42.206;24.142;2023-05-23T12:46:41;98424.53;;;28.00;45.50
12215;BME280;6170;42.206;24.142;2023-05-23T12:49:08;98388.88;;;28.12;44.96
12215;BME280;6170;42.206;24.142;2023-05-23T12:51:35;98379.94;;;27.46;41.42
12215;BME280;6170;42.206;24.142;2023-05-23T12:54:02;98376.41;;;27.80;44.94
12215;BME280;6170;42.206;24.142;2023-05-23T12:56:30;98421.13;;;27.94;44.40
12215;BME280;6170;42.206;24.142;2023-05-23T12:58:58;98415.44;;;28.08;41.55
12215;BME280;6170;42.206;24.142;2023-05-23T13:01:26;98372.00;;;27.45;40.02
12215;BME280;6170;42.206;24.142;2023-05-23T13:03:53;98369.63;;;27.78;41.23
12215;BME280;6170;42.206;24.142;2023-05-23T13:06:20;98375.59;;;27.54;41.16
12215;BME280;6170;42.206;24.142;2023-05-23T13:08:47;98363.31;;;27.77;42.02